createdAt,value
2022-07-27T00:00:17.249Z,16.40
2022-07-27T00:02:51.405Z,16.40
2022-07-27T00:05:21.003Z,16.50
2022-07-27T00:07:50.007Z,16.50
2022-07-27T00:10:18.998Z,16.40
2022-07-27T00:12:48.242Z,16.30
2022-07-27T00:15:19.255Z,16.30
2022-07-27T00:17:48.185Z,16.30
2022-07-27T00:20:17.482Z,16.20
2022-07-27T00:22:46.685Z,16.10
2022-07-27T00:25:16.356Z,16.10
2022-07-27T00:27:45.362Z,16.00
2022-07-27T00:30:14.732Z,15.90
2022-07-27T00:32:45.441Z,15.90
2022-07-27T00:35:16.747Z,15.90
2022-07-27T00:37:45.774Z,15.80
2022-07-27T00:40:14.739Z,15.80
2022-07-27T00:42:43.749Z,15.80
2022-07-27T00:45:14.377Z,15.70
2022-07-27T00:47:44.908Z,15.70
2022-07-27T00:50:15.343Z,15.70
2022-07-27T00:52:44.299Z,15.60
2022-07-27T00:55:13.558Z,15.50
2022-07-27T00:57:58.023Z,15.50
2022-07-27T01:00:28.465Z,15.30
2022-07-27T01:02:59.081Z,15.30
2022-07-27T01:05:35.756Z,15.30
2022-07-27T01:08:06.872Z,15.20
2022-07-27T01:10:35.769Z,15.30
2022-07-27T01:13:04.828Z,15.30
2022-07-27T01:15:36.780Z,15.40
2022-07-27T01:18:13.209Z,15.50
2022-07-27T01:20:43.566Z,15.60
2022-07-27T01:23:14.158Z,15.70
2022-07-27T01:25:44.887Z,15.80
2022-07-27T01:28:13.763Z,15.90
2022-07-27T01:30:42.655Z,15.90
2022-07-27T01:33:12.125Z,16.00
2022-07-27T01:35:41.748Z,16.00
2022-07-27T01:38:11.989Z,16.00
2022-07-27T01:40:42.576Z,16.00
2022-07-27T01:43:11.611Z,16.00
2022-07-27T01:45:41.246Z,16.00
2022-07-27T01:48:10.937Z,16.10
2022-07-27T01:50:40.848Z,16.10
2022-07-27T01:53:13.697Z,16.10
2022-07-27T01:55:44.210Z,16.20
2022-07-27T01:58:13.269Z,16.30
2022-07-27T02:00:42.745Z,16.30
2022-07-27T02:03:12.634Z,16.30
2022-07-27T02:05:41.671Z,16.20
2022-07-27T02:08:10.940Z,16.20
2022-07-27T02:11:00.040Z,16.20
2022-07-27T02:13:29.413Z,16.30
2022-07-27T02:15:58.452Z,16.20
2022-07-27T02:18:36.116Z,16.20
2022-07-27T02:21:07.231Z,16.20
2022-07-27T02:23:36.886Z,16.10
2022-07-27T02:26:07.045Z,16.20
2022-07-27T02:28:37.850Z,16.20
2022-07-27T02:31:06.876Z,16.30
2022-07-27T02:33:35.761Z,16.30
2022-07-27T02:36:05.833Z,16.20
2022-07-27T02:38:34.828Z,16.10
2022-07-27T02:41:03.542Z,16.10
2022-07-27T02:43:32.870Z,16.20
2022-07-27T02:46:03.921Z,16.20
2022-07-27T02:48:33.806Z,16.20
2022-07-27T02:51:03.693Z,16.20
2022-07-27T02:53:32.890Z,16.20
2022-07-27T02:56:01.840Z,16.30
2022-07-27T02:58:30.713Z,16.40
2022-07-27T03:00:59.905Z,16.40
2022-07-27T03:03:34.536Z,16.40
2022-07-27T03:06:06.536Z,16.40
2022-07-27T03:08:35.382Z,16.30
2022-07-27T03:11:04.322Z,16.40
2022-07-27T03:13:33.678Z,16.50
2022-07-27T03:16:02.776Z,16.50
2022-07-27T03:18:33.270Z,16.50
2022-07-27T03:21:02.209Z,16.60
2022-07-27T03:23:31.208Z,16.50
2022-07-27T03:26:00.056Z,16.40
2022-07-27T03:28:29.090Z,16.40
2022-07-27T03:30:57.944Z,16.50
2022-07-27T03:33:26.683Z,16.50
2022-07-27T03:35:57.177Z,16.50
2022-07-27T03:38:26.226Z,16.50
2022-07-27T03:40:57.652Z,16.50
2022-07-27T03:43:26.474Z,16.50
2022-07-27T03:45:55.250Z,16.50
2022-07-27T03:48:24.121Z,16.50
2022-07-27T03:50:52.877Z,16.50
2022-07-27T03:53:23.319Z,16.50
2022-07-27T03:55:52.585Z,16.40
2022-07-27T03:58:23.325Z,16.30
2022-07-27T04:00:52.643Z,16.30
2022-07-27T04:03:21.691Z,16.40
2022-07-27T04:05:50.345Z,16.40
2022-07-27T04:08:20.268Z,16.40
2022-07-27T04:10:50.672Z,16.40
2022-07-27T04:13:21.731Z,16.50
2022-07-27T04:15:50.601Z,16.50
2022-07-27T04:18:19.323Z,16.50
2022-07-27T04:20:48.247Z,16.50
2022-07-27T04:23:17.228Z,16.70
2022-07-27T04:25:46.351Z,16.90
2022-07-27T04:28:17.883Z,16.90
2022-07-27T04:30:46.883Z,16.80
2022-07-27T04:33:15.601Z,16.80
2022-07-27T04:35:44.439Z,17.10
2022-07-27T04:38:13.351Z,17.10
2022-07-27T04:40:42.470Z,17.00
2022-07-27T04:43:11.223Z,17.10
2022-07-27T04:45:42.986Z,17.10
2022-07-27T04:48:11.909Z,17.10
2022-07-27T04:50:41.768Z,17.10
2022-07-27T04:53:10.659Z,17.30
2022-07-27T04:55:42.364Z,17.40
2022-07-27T04:58:11.731Z,17.70
2022-07-27T05:00:40.807Z,17.90
2022-07-27T05:03:11.619Z,18.00
2022-07-27T05:05:40.661Z,18.20
2022-07-27T05:08:19.461Z,18.20
2022-07-27T05:10:48.735Z,18.20
2022-07-27T05:13:17.915Z,18.10
2022-07-27T05:15:54.479Z,18.10
2022-07-27T05:18:26.780Z,18.10
2022-07-27T05:20:55.735Z,18.00
2022-07-27T05:23:24.510Z,18.00
2022-07-27T05:25:53.716Z,17.90
2022-07-27T05:28:22.384Z,18.00
2022-07-27T05:30:51.326Z,17.80
2022-07-27T05:33:20.433Z,17.70
2022-07-27T05:35:51.074Z,17.50
2022-07-27T05:38:19.923Z,17.40
2022-07-27T05:40:48.899Z,17.40
2022-07-27T05:43:17.827Z,17.40
2022-07-27T05:45:47.195Z,17.60
2022-07-27T05:48:16.577Z,17.70
2022-07-27T05:50:45.672Z,17.60
2022-07-27T05:53:16.144Z,17.60
2022-07-27T05:55:58.317Z,17.50
2022-07-27T05:58:29.602Z,17.60
2022-07-27T06:00:58.995Z,17.70
2022-07-27T06:03:28.390Z,17.80
2022-07-27T06:06:17.207Z,17.80
2022-07-27T06:08:46.502Z,17.70
2022-07-27T06:11:15.814Z,17.60
2022-07-27T06:13:44.899Z,17.50
2022-07-27T06:16:14.630Z,17.50
2022-07-27T06:18:43.521Z,17.60
2022-07-27T06:21:12.523Z,17.50
2022-07-27T06:23:41.254Z,17.40
2022-07-27T06:26:11.663Z,17.50
2022-07-27T06:28:40.394Z,17.50
2022-07-27T06:31:09.324Z,17.60
2022-07-27T06:33:38.235Z,17.70
2022-07-27T06:36:08.488Z,17.80
2022-07-27T06:38:37.758Z,17.90
2022-07-27T06:41:06.692Z,17.90
2022-07-27T06:43:37.162Z,17.80
2022-07-27T06:46:07.326Z,17.70
2022-07-27T06:48:36.459Z,17.90
2022-07-27T06:51:05.288Z,17.90
2022-07-27T06:53:36.224Z,18.00
2022-07-27T06:56:08.444Z,18.10
2022-07-27T06:58:39.109Z,18.30
2022-07-27T07:01:07.978Z,18.30
2022-07-27T07:03:36.898Z,18.20
2022-07-27T07:06:06.029Z,18.50
2022-07-27T07:08:34.995Z,18.80
2022-07-27T07:11:04.357Z,19.30
2022-07-27T07:13:37.772Z,19.40
2022-07-27T07:16:10.015Z,19.20
2022-07-27T07:18:39.135Z,19.30
2022-07-27T07:21:08.048Z,19.50
2022-07-27T07:23:36.989Z,19.80
2022-07-27T07:26:05.883Z,19.90
2022-07-27T07:28:36.411Z,19.70
2022-07-27T07:31:05.471Z,19.60
2022-07-27T07:33:35.886Z,19.70
2022-07-27T07:36:13.534Z,19.50
2022-07-27T07:38:43.709Z,19.30
2022-07-27T07:41:12.939Z,19.20
2022-07-27T07:43:42.368Z,19.60
2022-07-27T07:46:11.610Z,19.40
2022-07-27T07:48:43.561Z,19.30
2022-07-27T07:51:13.143Z,18.90
2022-07-27T07:53:42.062Z,19.10
2022-07-27T07:56:10.845Z,19.60
2022-07-27T07:58:39.677Z,20.00
2022-07-27T08:01:08.406Z,19.90
2022-07-27T08:03:37.219Z,19.60
2022-07-27T08:06:08.301Z,19.30
2022-07-27T08:08:37.016Z,19.20
2022-07-27T08:11:06.371Z,19.50
2022-07-27T08:13:35.230Z,19.80
2022-07-27T08:16:04.434Z,19.70
2022-07-27T08:18:33.630Z,19.60
2022-07-27T08:21:02.645Z,19.50
2022-07-27T08:23:33.012Z,19.60
2022-07-27T08:26:07.530Z,20.00
2022-07-27T08:28:37.230Z,20.00
2022-07-27T08:31:14.691Z,20.00
2022-07-27T08:33:46.073Z,20.10
2022-07-27T08:36:14.929Z,20.20
2022-07-27T08:38:45.566Z,20.40
2022-07-27T08:41:15.717Z,20.60
2022-07-27T08:43:45.757Z,20.50
2022-07-27T08:46:15.884Z,20.30
2022-07-27T08:48:45.428Z,20.40
2022-07-27T08:51:14.713Z,20.70
2022-07-27T08:53:53.023Z,20.50
2022-07-27T08:56:23.514Z,20.10
2022-07-27T08:58:52.446Z,20.10
2022-07-27T09:01:21.727Z,20.10
2022-07-27T09:03:50.770Z,20.00
2022-07-27T09:06:44.471Z,20.20
2022-07-27T09:09:16.985Z,20.60
2022-07-27T09:12:03.341Z,21.00
2022-07-27T09:14:33.510Z,21.00
2022-07-27T09:20:17.758Z,21.10
2022-07-27T09:22:50.849Z,20.60
2022-07-27T09:25:45.002Z,20.20
2022-07-27T09:28:12.126Z,20.30
2022-07-27T09:30:44.063Z,20.50
2022-07-27T09:33:16.067Z,20.50
2022-07-27T09:35:46.302Z,20.70
2022-07-27T09:38:19.943Z,20.70
2022-07-27T09:40:59.468Z,21.00
2022-07-27T09:46:31.155Z,21.00
2022-07-27T09:49:00.359Z,20.80
2022-07-27T09:51:59.598Z,20.80
2022-07-27T09:54:18.894Z,20.90
2022-07-27T09:57:01.492Z,20.80
2022-07-27T09:59:31.268Z,20.90
2022-07-27T10:02:01.691Z,21.10
2022-07-27T10:04:35.958Z,21.30
2022-07-27T10:07:09.327Z,21.50
2022-07-27T10:09:41.896Z,21.30
2022-07-27T10:12:12.693Z,21.20
2022-07-27T10:14:41.519Z,21.00
2022-07-27T10:17:12.968Z,20.80
2022-07-27T10:19:47.087Z,20.80
2022-07-27T10:22:16.464Z,21.00
2022-07-27T10:24:48.740Z,21.30
2022-07-27T10:27:28.520Z,21.40
2022-07-27T10:29:59.009Z,21.50
2022-07-27T10:32:31.279Z,21.90
2022-07-27T10:35:01.671Z,21.70
2022-07-27T10:37:32.217Z,21.80
2022-07-27T10:40:20.018Z,22.00
2022-07-27T10:42:54.377Z,22.00
2022-07-27T10:45:23.777Z,22.10
2022-07-27T10:47:54.034Z,22.10
2022-07-27T10:50:26.640Z,22.20
2022-07-27T10:52:57.340Z,21.90
2022-07-27T11:00:12.240Z,21.80
2022-07-27T11:02:43.659Z,21.70
2022-07-27T11:05:42.697Z,22.00
2022-07-27T11:10:50.965Z,22.30
2022-07-27T11:13:20.598Z,22.30
2022-07-27T11:15:59.890Z,21.80
2022-07-27T11:18:31.044Z,22.00
2022-07-27T11:21:15.152Z,22.00
2022-07-27T11:23:52.062Z,22.40
2022-07-27T11:26:21.640Z,22.50
2022-07-27T11:28:51.069Z,22.60
2022-07-27T11:31:45.176Z,22.60
2022-07-27T11:34:13.900Z,22.20
2022-07-27T11:36:44.690Z,22.10
2022-07-27T11:39:28.561Z,22.50
2022-07-27T11:42:12.174Z,22.30
2022-07-27T11:44:42.631Z,22.30
2022-07-27T11:47:18.085Z,22.30
2022-07-27T11:49:46.920Z,22.50
2022-07-27T11:52:18.886Z,22.60
2022-07-27T11:54:53.321Z,22.40
2022-07-27T11:57:22.724Z,21.90
2022-07-27T11:59:52.120Z,22.00
2022-07-27T12:02:23.136Z,22.20
2022-07-27T12:04:53.065Z,22.00
2022-07-27T12:07:24.127Z,22.40
2022-07-27T12:09:55.395Z,22.40
2022-07-27T12:12:25.972Z,22.40
2022-07-27T12:14:56.822Z,22.70
2022-07-27T12:17:30.885Z,22.90
2022-07-27T12:20:04.376Z,23.00
2022-07-27T12:22:35.736Z,22.80
2022-07-27T12:25:10.047Z,22.70
2022-07-27T12:27:56.369Z,22.60
2022-07-27T12:30:33.700Z,22.30
2022-07-27T12:33:06.180Z,22.70
2022-07-27T12:35:45.906Z,22.70
2022-07-27T12:38:16.346Z,22.80
2022-07-27T12:40:46.566Z,22.40
2022-07-27T12:43:18.731Z,22.50
2022-07-27T12:45:49.483Z,22.60
2022-07-27T12:48:22.111Z,22.30
2022-07-27T12:50:59.740Z,22.20
2022-07-27T12:53:29.444Z,22.40
2022-07-27T12:56:00.300Z,22.40
2022-07-27T12:58:29.369Z,22.60
2022-07-27T13:00:59.129Z,22.60
2022-07-27T13:03:29.633Z,22.60
2022-07-27T13:05:58.676Z,22.60
2022-07-27T13:08:27.318Z,22.60
2022-07-27T13:10:59.809Z,22.50
2022-07-27T13:13:28.461Z,22.80
2022-07-27T13:15:57.015Z,23.20
2022-07-27T13:18:25.711Z,23.20
2022-07-27T13:20:55.868Z,22.90
2022-07-27T13:23:24.564Z,23.00
2022-07-27T13:25:53.137Z,22.70
2022-07-27T13:28:21.826Z,22.50
2022-07-27T13:30:50.686Z,22.70
2022-07-27T13:33:19.240Z,22.60
2022-07-27T13:35:59.366Z,22.70
2022-07-27T13:38:31.196Z,22.80
2022-07-27T13:40:59.855Z,23.00
2022-07-27T13:43:28.428Z,23.10
2022-07-27T13:45:57.168Z,23.00
2022-07-27T13:48:25.785Z,23.10
2022-07-27T13:50:54.405Z,23.10
2022-07-27T13:53:23.805Z,23.00
2022-07-27T13:55:53.785Z,23.00
2022-07-27T13:58:22.420Z,22.80
2022-07-27T14:00:51.820Z,22.90
2022-07-27T14:03:21.097Z,22.90
2022-07-27T14:05:49.970Z,22.90
2022-07-27T14:08:21.820Z,22.90
2022-07-27T14:10:51.322Z,22.50
2022-07-27T14:13:22.324Z,22.20
2022-07-27T14:15:54.277Z,22.30
2022-07-27T14:18:26.096Z,22.60
2022-07-27T14:20:55.787Z,23.20
2022-07-27T14:23:25.614Z,23.20
2022-07-27T14:25:55.370Z,23.30
2022-07-27T14:28:26.417Z,23.20
2022-07-27T14:30:56.146Z,23.20
2022-07-27T14:33:25.933Z,23.20
2022-07-27T14:36:02.182Z,23.50
2022-07-27T14:38:31.317Z,22.90
2022-07-27T14:41:01.958Z,22.80
2022-07-27T14:43:32.338Z,22.60
2022-07-27T14:46:01.351Z,22.40
2022-07-27T14:49:03.440Z,22.80
2022-07-27T14:51:19.119Z,22.80
2022-07-27T14:53:48.056Z,22.40
2022-07-27T14:56:17.007Z,22.60
2022-07-27T14:58:47.666Z,22.60
2022-07-27T15:01:17.268Z,22.70
2022-07-27T15:03:47.452Z,22.80
2022-07-27T15:06:16.614Z,22.70
2022-07-27T15:08:45.580Z,22.40
2022-07-27T15:11:14.368Z,22.40
2022-07-27T15:13:43.785Z,22.40
2022-07-27T15:16:14.367Z,22.20
2022-07-27T15:18:45.417Z,22.30
2022-07-27T15:21:14.928Z,22.40
2022-07-27T15:23:44.699Z,22.50
2022-07-27T15:26:14.311Z,22.40
2022-07-27T15:28:43.762Z,22.30
2022-07-27T15:31:14.168Z,22.30
2022-07-27T15:33:43.313Z,22.30
2022-07-27T15:48:12.388Z,22.10
2022-07-27T15:50:42.645Z,22.20
2022-07-27T15:53:12.388Z,22.20
2022-07-27T15:55:41.374Z,22.00
2022-07-27T15:58:11.010Z,21.70
2022-07-27T16:00:40.879Z,21.80
2022-07-27T16:03:16.158Z,22.20
2022-07-27T16:05:47.712Z,22.10
2022-07-27T16:08:18.244Z,21.90
2022-07-27T16:10:48.903Z,21.80
2022-07-27T16:13:17.638Z,21.80
2022-07-27T16:16:04.002Z,21.70
2022-07-27T16:18:38.644Z,21.90
2022-07-27T16:21:08.411Z,22.00
2022-07-27T16:23:37.071Z,21.80
2022-07-27T16:26:06.442Z,21.50
2022-07-27T16:28:38.718Z,21.60
2022-07-27T16:31:10.403Z,21.60
2022-07-27T16:33:41.546Z,21.70
2022-07-27T16:36:10.652Z,21.80
2022-07-27T16:38:49.947Z,21.90
2022-07-27T16:41:20.072Z,21.70
2022-07-27T16:43:49.048Z,21.70
2022-07-27T16:46:23.244Z,21.40
2022-07-27T16:48:53.362Z,21.60
2022-07-27T16:51:22.112Z,21.60
2022-07-27T16:53:50.680Z,21.60
2022-07-27T16:56:19.399Z,21.30
2022-07-27T16:58:48.118Z,21.30
2022-07-27T17:01:23.134Z,21.20
2022-07-27T17:03:58.704Z,21.30
2022-07-27T17:06:28.836Z,21.40
2022-07-27T17:08:57.719Z,21.40
2022-07-27T17:11:26.314Z,21.40
2022-07-27T17:13:58.808Z,21.60
2022-07-27T17:16:29.233Z,21.50
2022-07-27T17:18:59.172Z,21.60
2022-07-27T17:21:27.827Z,21.60
2022-07-27T17:23:56.431Z,21.80
2022-07-27T17:26:25.324Z,21.80
2022-07-27T17:28:54.309Z,21.70
2022-07-27T17:31:23.471Z,21.80
2022-07-27T17:33:52.918Z,21.50
2022-07-27T17:36:23.445Z,21.40
2022-07-27T17:38:52.264Z,21.50
2022-07-27T17:41:24.832Z,21.40
2022-07-27T17:43:55.029Z,21.00
2022-07-27T17:46:24.618Z,20.80
2022-07-27T17:48:54.456Z,20.40
2022-07-27T17:51:25.385Z,20.10
2022-07-27T17:53:54.160Z,19.90
2022-07-27T17:56:22.739Z,19.80
2022-07-27T17:58:51.649Z,19.70
2022-07-27T18:01:46.932Z,19.60
2022-07-27T18:04:09.470Z,19.60
2022-07-27T18:06:39.542Z,19.50
2022-07-27T18:09:08.743Z,19.50
2022-07-27T18:11:37.459Z,19.40
2022-07-27T18:14:06.077Z,19.40
2022-07-27T18:16:39.896Z,19.30
2022-07-27T18:19:09.329Z,19.30
2022-07-27T18:21:39.427Z,19.10
2022-07-27T18:24:10.453Z,19.00
2022-07-27T18:26:40.133Z,19.00
2022-07-27T18:29:08.900Z,19.00
2022-07-27T18:31:37.849Z,18.80
2022-07-27T18:34:12.337Z,18.70
2022-07-27T18:36:43.121Z,18.60
2022-07-27T18:39:12.231Z,18.60
2022-07-27T18:41:41.254Z,18.50
2022-07-27T18:44:10.277Z,18.30
2022-07-27T18:46:39.028Z,18.30
2022-07-27T18:49:08.291Z,18.20
2022-07-27T18:51:44.111Z,18.10
2022-07-27T18:54:12.761Z,18.00
2022-07-27T18:56:41.697Z,17.80
2022-07-27T18:59:10.738Z,17.70
2022-07-27T19:01:40.082Z,17.60
2022-07-27T19:04:09.313Z,17.50
2022-07-27T19:06:38.021Z,17.50
2022-07-27T19:09:08.528Z,17.40
2022-07-27T19:11:37.453Z,17.30
2022-07-27T19:14:06.414Z,17.10
2022-07-27T19:16:35.884Z,17.00
2022-07-27T19:19:06.695Z,17.00
2022-07-27T19:21:38.704Z,16.90
2022-07-27T19:24:09.586Z,16.80
2022-07-27T19:26:38.424Z,16.70
2022-07-27T19:29:07.412Z,16.50
2022-07-27T19:31:36.702Z,16.40
2022-07-27T19:34:06.002Z,16.20
2022-07-27T19:36:34.798Z,16.10
2022-07-27T19:39:07.718Z,16.00
2022-07-27T19:41:38.704Z,15.90
2022-07-27T19:44:08.055Z,15.90
2022-07-27T19:46:36.920Z,15.70
2022-07-27T19:49:06.096Z,15.70
2022-07-27T19:51:35.255Z,15.60
2022-07-27T19:54:04.093Z,15.70
2022-07-27T19:56:37.125Z,15.60
2022-07-27T19:59:07.622Z,15.60
2022-07-27T20:01:37.301Z,15.60
2022-07-27T20:04:07.911Z,15.50
2022-07-27T20:06:37.802Z,15.50
2022-07-27T20:09:07.449Z,15.40
2022-07-27T20:11:36.278Z,15.50
2022-07-27T20:14:05.390Z,15.40
2022-07-27T20:16:38.230Z,15.30
2022-07-27T20:19:06.965Z,15.30
2022-07-27T20:21:36.947Z,15.20
2022-07-27T20:24:05.758Z,15.20
2022-07-27T20:26:34.619Z,15.20
2022-07-27T20:29:03.234Z,15.10
2022-07-27T20:31:32.091Z,15.10
2022-07-27T20:34:02.149Z,15.10
2022-07-27T20:36:30.784Z,15.00
2022-07-27T20:38:59.942Z,15.00
2022-07-27T20:41:28.747Z,14.90
2022-07-27T20:43:57.398Z,14.70
2022-07-27T20:46:26.125Z,14.60
2022-07-27T20:48:54.816Z,14.40
2022-07-27T20:51:24.940Z,14.30
2022-07-27T20:53:55.751Z,14.20
2022-07-27T20:56:24.396Z,14.20
2022-07-27T20:58:53.042Z,14.20
2022-07-27T21:01:21.945Z,13.90
2022-07-27T21:03:50.833Z,13.60
2022-07-27T21:06:19.535Z,13.40
2022-07-27T21:08:49.884Z,13.50
2022-07-27T21:11:20.181Z,13.20
2022-07-27T21:13:49.210Z,13.30
2022-07-27T21:16:18.091Z,13.30
2022-07-27T21:18:46.943Z,13.30
2022-07-27T21:21:15.600Z,13.40
2022-07-27T21:24:01.522Z,13.30
2022-07-27T21:26:33.242Z,13.30
2022-07-27T21:29:02.806Z,13.20
2022-07-27T21:31:32.452Z,13.10
2022-07-27T21:34:01.095Z,13.10
2022-07-27T21:36:30.041Z,13.10
2022-07-27T21:38:58.710Z,13.10
2022-07-27T21:41:27.496Z,12.80
2022-07-27T21:43:57.792Z,12.80
2022-07-27T21:46:26.957Z,12.80
2022-07-27T21:48:55.619Z,13.00
2022-07-27T21:51:24.393Z,12.80
2022-07-27T21:53:53.086Z,12.80
2022-07-27T21:56:21.952Z,12.70
2022-07-27T21:58:50.789Z,12.70
2022-07-27T22:01:21.798Z,11.50
2022-07-27T22:03:50.970Z,12.70
2022-07-27T22:06:20.197Z,12.60
2022-07-27T22:08:48.913Z,12.70
2022-07-27T22:11:17.512Z,12.60
2022-07-27T22:13:46.332Z,12.50
2022-07-27T22:16:15.136Z,12.50
2022-07-27T22:18:45.344Z,12.60
2022-07-27T22:21:14.026Z,12.60
2022-07-27T22:23:42.686Z,12.60
2022-07-27T22:26:11.522Z,12.60
2022-07-27T22:28:40.235Z,12.60
2022-07-27T22:31:21.564Z,12.50
2022-07-27T22:33:53.963Z,12.60
2022-07-27T22:36:22.874Z,12.60
2022-07-27T22:38:51.587Z,12.60
2022-07-27T22:41:20.486Z,12.60
2022-07-27T22:43:49.136Z,12.50
2022-07-27T22:46:20.999Z,12.60
2022-07-27T22:48:56.173Z,12.60
2022-07-27T22:51:25.191Z,12.60
2022-07-27T22:53:54.446Z,12.60
2022-07-27T22:56:23.101Z,12.60
2022-07-27T22:58:51.972Z,12.60
2022-07-27T23:01:46.247Z,12.60
2022-07-27T23:04:10.998Z,12.70
2022-07-27T23:06:40.193Z,12.70
2022-07-27T23:09:09.138Z,12.70
2022-07-27T23:11:37.782Z,12.60
2022-07-27T23:14:07.483Z,12.60
2022-07-27T23:16:36.565Z,12.30
2022-07-27T23:19:05.234Z,12.40
2022-07-27T23:21:35.267Z,12.40
2022-07-27T23:24:06.398Z,12.40
2022-07-27T23:26:35.127Z,12.40
2022-07-27T23:29:03.805Z,12.50
2022-07-27T23:31:32.523Z,12.40
2022-07-27T23:34:01.455Z,12.40
2022-07-27T23:36:30.522Z,12.40
2022-07-27T23:39:00.945Z,12.40
2022-07-27T23:41:29.594Z,12.40
2022-07-27T23:43:58.169Z,12.30
2022-07-27T23:46:27.166Z,12.30
2022-07-27T23:48:55.930Z,12.20
2022-07-27T23:51:24.685Z,12.20
2022-07-27T23:53:53.489Z,12.10
2022-07-27T23:56:23.818Z,12.00
2022-07-27T23:58:52.834Z,12.00
